Time;durP1;ratioP1;P1;durP2;ratioP2;P2;SDS_P1;SDS_P2;PMS_P1;PMS_P2;Temp;Humidity;BMP_temperature;BMP_pressure;BME280_temperature;BME280_humidity;BME280_pressure;Samples;Min_cycle;Max_cycle;Signal;HPM_P1;HPM_P2
2023/12/24 00:00:41;;;;;;;0.00;0.00;;;;;;;;;;1737520;28;20318;-62
2023/12/24 00:01:32;;;;;;;0.00;0.00;;;;;;;;;;1737014;28;20214;-64
2023/12/24 00:02:24;;;;;;;0.00;0.00;;;;;;;;;;1738290;28;20555;-61
2023/12/24 00:03:17;;;;;;;0.00;0.00;;;;;;;;;;1738307;28;20211;-62
2023/12/24 00:04:09;;;;;;;0.00;0.00;;;;;;;;;;1738437;28;20678;-62
2023/12/24 00:05:00;;;;;;;0.00;0.00;;;;;;;;;;1738658;28;20263;-61
2023/12/24 00:05:51;;;;;;;0.00;0.00;;;;;;;;;;1736673;28;20272;-62
2023/12/24 00:06:43;;;;;;;0.00;0.00;;;;;;;;;;1738706;28;20195;-63
2023/12/24 00:07:34;;;;;;;0.00;0.00;;;;;;;;;;1738023;28;20211;-63
2023/12/24 00:08:25;;;;;;;0.00;0.00;;;;;;;;;;1733423;28;20203;-62
2023/12/24 00:09:17;;;;;;;0.00;0.00;;;;;;;;;;1736417;28;20720;-62
2023/12/24 00:10:08;;;;;;;0.00;0.00;;;;;;;;;;1738961;28;20330;-61
2023/12/24 00:10:59;;;;;;;0.00;0.00;;;;;;;;;;1737123;28;20238;-63
2023/12/24 00:11:51;;;;;;;0.00;0.00;;;;;;;;;;1738827;28;20199;-62
2023/12/24 00:12:42;;;;;;;0.03;0.03;;;;;;;;;;1738174;28;20211;-63
2023/12/24 00:13:33;;;;;;;0.00;0.00;;;;;;;;;;1738929;28;20293;-62
2023/12/24 00:14:25;;;;;;;0.00;0.00;;;;;;;;;;1738225;28;20199;-62
2023/12/24 00:15:16;;;;;;;0.00;0.00;;;;;;;;;;1738839;28;20332;-62
2023/12/24 00:16:07;;;;;;;0.00;0.00;;;;;;;;;;1737507;28;20234;-63
2023/12/24 00:16:59;;;;;;;0.00;0.00;;;;;;;;;;1738710;28;20238;-61
2023/12/24 00:17:51;;;;;;;0.00;0.00;;;;;;;;;;1738453;28;20207;-63
2023/12/24 00:18:43;;;;;;;0.00;0.00;;;;;;;;;;1738647;28;20225;-62
2023/12/24 00:19:35;;;;;;;0.00;0.00;;;;;;;;;;1738590;28;20214;-62
2023/12/24 00:20:26;;;;;;;0.00;0.00;;;;;;;;;;1736292;28;20215;-64
2023/12/24 00:21:17;;;;;;;0.00;0.00;;;;;;;;;;1738338;28;20207;-62
2023/12/24 00:22:10;;;;;;;0.00;0.00;;;;;;;;;;1739378;28;20290;-63
2023/12/24 00:23:04;;;;;;;0.00;0.00;;;;;;;;;;1737997;28;20207;-63
2023/12/24 00:23:55;;;;;;;0.00;0.00;;;;;;;;;;1738855;28;20297;-64
2023/12/24 00:24:47;;;;;;;0.00;0.00;;;;;;;;;;1738174;28;20757;-63
2023/12/24 00:25:39;;;;;;;0.00;0.00;;;;;;;;;;1737600;28;20238;-65
2023/12/24 00:26:31;;;;;;;0.00;0.00;;;;;;;;;;1738295;28;20210;-64
2023/12/24 00:27:23;;;;;;;0.00;0.00;;;;;;;;;;1738449;28;20211;-64
2023/12/24 00:28:14;;;;;;;0.00;0.00;;;;;;;;;;1737979;28;20260;-62
2023/12/24 00:29:05;;;;;;;0.00;0.00;;;;;;;;;;1738444;28;20203;-63
2023/12/24 00:29:57;;;;;;;0.00;0.00;;;;;;;;;;1738556;28;20235;-62
2023/12/24 00:30:48;;;;;;;0.00;0.00;;;;;;;;;;1737020;28;20284;-62
2023/12/24 00:31:40;;;;;;;0.05;0.05;;;;;;;;;;1738644;28;20220;-63
2023/12/24 00:32:31;;;;;;;0.00;0.00;;;;;;;;;;1737936;28;20260;-63
2023/12/24 00:33:30;;;;;;;0.00;0.00;;;;;;;;;;1737416;28;20222;-65
2023/12/24 00:34:23;;;;;;;0.00;0.00;;;;;;;;;;1738035;28;20223;-64
2023/12/24 00:35:14;;;;;;;0.00;0.00;;;;;;;;;;1738721;28;20218;-65
2023/12/24 00:36:06;;;;;;;0.00;0.00;;;;;;;;;;1734395;28;20754;-63
2023/12/24 00:36:57;;;;;;;0.00;0.00;;;;;;;;;;1738458;28;20309;-63
2023/12/24 00:37:48;;;;;;;0.00;0.00;;;;;;;;;;1738017;28;20211;-64
2023/12/24 00:38:40;;;;;;;0.00;0.00;;;;;;;;;;1738415;28;20317;-63
2023/12/24 00:39:31;;;;;;;0.00;0.00;;;;;;;;;;1737700;28;20651;-62
2023/12/24 00:40:22;;;;;;;0.00;0.00;;;;;;;;;;1737404;28;20234;-63
2023/12/24 00:41:14;;;;;;;0.00;0.00;;;;;;;;;;1738009;28;20203;-63
2023/12/24 00:42:06;;;;;;;0.00;0.00;;;;;;;;;;1734227;28;20651;-63
2023/12/24 00:42:57;;;;;;;0.00;0.00;;;;;;;;;;1737712;28;20245;-62
2023/12/24 00:43:49;;;;;;;0.00;0.00;;;;;;;;;;1738253;28;20206;-62
2023/12/24 00:44:43;;;;;;;0.00;0.00;;;;;;;;;;1737958;28;20211;-63
2023/12/24 00:45:35;;;;;;;0.00;0.00;;;;;;;;;;1737241;28;20236;-62
2023/12/24 00:46:27;;;;;;;0.00;0.00;;;;;;;;;;1737773;28;20207;-63
2023/12/24 00:47:18;;;;;;;0.00;0.00;;;;;;;;;;1738047;28;20238;-63
2023/12/24 00:48:10;;;;;;;0.00;0.00;;;;;;;;;;1737832;28;20203;-62
2023/12/24 00:49:01;;;;;;;0.00;0.00;;;;;;;;;;1737989;28;20256;-66
2023/12/24 00:49:53;;;;;;;0.00;0.00;;;;;;;;;;1737765;28;20666;-64
2023/12/24 00:50:46;;;;;;;0.00;0.00;;;;;;;;;;1736960;28;20775;-62
2023/12/24 00:51:40;;;;;;;0.00;0.00;;;;;;;;;;1737899;28;20210;-63
2023/12/24 00:52:31;;;;;;;0.00;0.00;;;;;;;;;;1738004;28;20533;-62
2023/12/24 00:53:23;;;;;;;0.00;0.00;;;;;;;;;;1738508;28;20210;-64
2023/12/24 00:54:14;;;;;;;0.00;0.00;;;;;;;;;;1737992;28;20644;-65
2023/12/24 00:55:06;;;;;;;0.00;0.00;;;;;;;;;;1738609;28;20628;-62
2023/12/24 00:55:58;;;;;;;0.00;0.00;;;;;;;;;;1736401;28;20818;-63
2023/12/24 00:56:49;;;;;;;0.00;0.00;;;;;;;;;;1738294;28;20242;-64
2023/12/24 00:57:40;;;;;;;0.00;0.00;;;;;;;;;;1737878;28;20203;-63
2023/12/24 00:58:32;;;;;;;0.00;0.00;;;;;;;;;;1738089;28;20381;-62
2023/12/24 00:59:23;;;;;;;0.00;0.00;;;;;;;;;;1737724;28;20211;-63
2023/12/24 01:00:15;;;;;;;0.00;0.00;;;;;;;;;;1738502;28;20249;-62
2023/12/24 01:01:07;;;;;;;0.00;0.00;;;;;;;;;;1736181;28;21413;-63
2023/12/24 01:01:58;;;;;;;0.00;0.00;;;;;;;;;;1737297;28;20207;-63
2023/12/24 01:02:49;;;;;;;0.03;0.03;;;;;;;;;;1737553;28;20702;-62
2023/12/24 01:03:41;;;;;;;0.00;0.00;;;;;;;;;;1738597;28;20791;-63
2023/12/24 01:04:32;;;;;;;0.00;0.00;;;;;;;;;;1737641;28;20218;-63
2023/12/24 01:05:25;;;;;;;0.00;0.00;;;;;;;;;;1737288;28;20313;-63
2023/12/24 01:06:16;;;;;;;0.00;0.00;;;;;;;;;;1737664;28;20745;-64
2023/12/24 01:07:07;;;;;;;0.00;0.00;;;;;;;;;;1734616;28;20322;-64
2023/12/24 01:07:59;;;;;;;0.00;0.00;;;;;;;;;;1737733;28;20209;-63
2023/12/24 01:08:50;;;;;;;0.00;0.00;;;;;;;;;;1737905;28;20292;-63
2023/12/24 01:09:41;;;;;;;0.00;0.00;;;;;;;;;;1737798;28;20795;-63
2023/12/24 01:10:33;;;;;;;0.00;0.00;;;;;;;;;;1736987;28;20973;-63
2023/12/24 01:11:24;;;;;;;0.00;0.00;;;;;;;;;;1737714;28;20199;-63
2023/12/24 01:12:16;;;;;;;0.00;0.00;;;;;;;;;;1738636;28;20582;-62
2023/12/24 01:13:08;;;;;;;0.08;0.08;;;;;;;;;;1737751;28;20211;-62
2023/12/24 01:13:59;;;;;;;0.00;0.00;;;;;;;;;;1738060;28;20240;-62
2023/12/24 01:14:51;;;;;;;0.00;0.00;;;;;;;;;;1737727;28;20210;-63
2023/12/24 01:15:42;;;;;;;0.00;0.00;;;;;;;;;;1736956;28;20226;-65
2023/12/24 01:16:34;;;;;;;0.00;0.00;;;;;;;;;;1737775;28;20215;-63
2023/12/24 01:17:25;;;;;;;0.00;0.00;;;;;;;;;;1737591;28;20215;-65
2023/12/24 01:18:17;;;;;;;0.00;0.00;;;;;;;;;;1738357;28;20211;-62
2023/12/24 01:19:08;;;;;;;0.00;0.00;;;;;;;;;;1738268;28;20268;-63
2023/12/24 01:19:59;;;;;;;0.00;0.00;;;;;;;;;;1739423;28;20244;-63
2023/12/24 01:20:53;;;;;;;0.00;0.00;;;;;;;;;;1737858;28;20235;-63
2023/12/24 01:21:44;;;;;;;0.00;0.00;;;;;;;;;;1739711;28;20218;-63
2023/12/24 01:22:38;;;;;;;0.00;0.00;;;;;;;;;;1739203;28;20207;-63
2023/12/24 01:23:30;;;;;;;0.00;0.00;;;;;;;;;;1739481;28;20218;-62
2023/12/24 01:24:21;;;;;;;0.00;0.00;;;;;;;;;;1739017;28;20207;-64
2023/12/24 01:25:12;;;;;;;0.00;0.00;;;;;;;;;;1739772;28;20215;-61
2023/12/24 01:26:04;;;;;;;0.00;0.00;;;;;;;;;;1738028;28;20238;-62
2023/12/24 01:26:55;;;;;;;0.00;0.00;;;;;;;;;;1739167;28;20203;-63
2023/12/24 01:27:46;;;;;;;0.00;0.00;;;;;;;;;;1738909;28;20210;-65
2023/12/24 01:28:38;;;;;;;0.00;0.00;;;;;;;;;;1739702;28;20313;-62
2023/12/24 01:29:29;;;;;;;0.00;0.00;;;;;;;;;;1739016;28;20222;-63
2023/12/24 01:30:20;;;;;;;0.00;0.00;;;;;;;;;;1738385;28;20210;-62
2023/12/24 01:31:12;;;;;;;0.00;0.00;;;;;;;;;;1739209;28;20230;-63
2023/12/24 01:32:03;;;;;;;0.00;0.00;;;;;;;;;;1739592;28;20691;-62
2023/12/24 01:32:54;;;;;;;0.00;0.00;;;;;;;;;;1738675;28;21243;-62
2023/12/24 01:33:46;;;;;;;0.00;0.00;;;;;;;;;;1739324;28;20202;-62
2023/12/24 01:34:37;;;;;;;0.00;0.00;;;;;;;;;;1737761;28;20685;-62
2023/12/24 01:35:28;;;;;;;0.00;0.00;;;;;;;;;;1738191;28;20203;-63
2023/12/24 01:36:21;;;;;;;0.00;0.00;;;;;;;;;;1738519;28;20207;-61
2023/12/24 01:37:12;;;;;;;0.00;0.00;;;;;;;;;;1739902;28;20219;-63
2023/12/24 01:38:03;;;;;;;0.00;0.00;;;;;;;;;;1738862;28;20199;-64
2023/12/24 01:38:55;;;;;;;0.00;0.00;;;;;;;;;;1739370;28;20219;-62
2023/12/24 01:39:46;;;;;;;0.00;0.00;;;;;;;;;;1738557;28;20298;-62
2023/12/24 01:40:37;;;;;;;0.00;0.00;;;;;;;;;;1738242;28;20210;-62
2023/12/24 01:41:31;;;;;;;0.00;0.00;;;;;;;;;;1737719;28;20211;-63
2023/12/24 01:42:22;;;;;;;0.00;0.00;;;;;;;;;;1739292;28;20203;-63
2023/12/24 01:43:14;;;;;;;0.00;0.00;;;;;;;;;;1739637;28;20260;-64
2023/12/24 01:44:05;;;;;;;0.00;0.00;;;;;;;;;;1739027;28;20681;-64
2023/12/24 01:44:56;;;;;;;0.00;0.00;;;;;;;;;;1739303;28;20268;-63
2023/12/24 01:45:48;;;;;;;0.00;0.00;;;;;;;;;;1737680;28;20223;-63
2023/12/24 01:46:39;;;;;;;0.00;0.00;;;;;;;;;;1738607;28;20619;-62
2023/12/24 01:47:31;;;;;;;0.00;0.00;;;;;;;;;;1738705;28;20288;-63
2023/12/24 01:48:23;;;;;;;0.00;0.00;;;;;;;;;;1739048;28;20646;-63
2023/12/24 01:49:14;;;;;;;0.10;0.10;;;;;;;;;;1737896;28;20211;-61
2023/12/24 01:50:06;;;;;;;0.00;0.00;;;;;;;;;;1737103;28;20728;-62
2023/12/24 01:51:00;;;;;;;0.00;0.00;;;;;;;;;;1736522;28;20629;-62
2023/12/24 01:51:52;;;;;;;0.00;0.00;;;;;;;;;;1739463;28;20752;-62
2023/12/24 01:52:44;;;;;;;0.00;0.00;;;;;;;;;;1738832;28;20733;-63
2023/12/24 01:53:36;;;;;;;0.00;0.00;;;;;;;;;;1739673;28;20215;-65
2023/12/24 01:54:28;;;;;;;0.00;0.00;;;;;;;;;;1738890;28;20278;-62
2023/12/24 01:55:20;;;;;;;0.00;0.00;;;;;;;;;;1739909;28;20619;-62
2023/12/24 01:56:11;;;;;;;0.00;0.00;;;;;;;;;;1736458;28;20233;-62
2023/12/24 01:57:03;;;;;;;0.00;0.00;;;;;;;;;;1738542;28;20288;-62
2023/12/24 01:57:54;;;;;;;0.00;0.00;;;;;;;;;;1739143;28;20336;-63
2023/12/24 01:58:46;;;;;;;0.00;0.00;;;;;;;;;;1735652;28;20227;-62
2023/12/24 01:59:39;;;;;;;0.00;0.00;;;;;;;;;;1738555;28;20217;-63
2023/12/24 02:00:30;;;;;;;0.00;0.00;;;;;;;;;;1737880;28;20640;-62
2023/12/24 02:01:21;;;;;;;0.00;0.00;;;;;;;;;;1736944;28;20242;-61
2023/12/24 02:02:14;;;;;;;0.00;0.00;;;;;;;;;;1739715;28;20213;-62
2023/12/24 02:03:05;;;;;;;0.00;0.00;;;;;;;;;;1738255;28;20207;-62
2023/12/24 02:03:56;;;;;;;0.00;0.00;;;;;;;;;;1739359;28;20210;-63
2023/12/24 02:04:48;;;;;;;0.00;0.00;;;;;;;;;;1738531;28;20207;-62
2023/12/24 02:05:40;;;;;;;0.00;0.00;;;;;;;;;;1738033;28;20260;-62
2023/12/24 02:06:32;;;;;;;0.00;0.00;;;;;;;;;;1738643;28;20202;-63
2023/12/24 02:07:26;;;;;;;0.08;0.08;;;;;;;;;;1738884;28;20665;-62
2023/12/24 02:08:18;;;;;;;0.00;0.00;;;;;;;;;;1739585;28;20714;-62
2023/12/24 02:09:09;;;;;;;0.00;0.00;;;;;;;;;;1738415;28;20207;-62
2023/12/24 02:10:02;;;;;;;0.00;0.00;;;;;;;;;;1739208;28;20642;-63
2023/12/24 02:10:53;;;;;;;0.00;0.00;;;;;;;;;;1738639;28;20662;-62
2023/12/24 02:11:44;;;;;;;0.00;0.00;;;;;;;;;;1738657;28;20218;-62
2023/12/24 02:12:36;;;;;;;0.00;0.00;;;;;;;;;;1738755;28;20236;-63
2023/12/24 02:13:27;;;;;;;0.00;0.00;;;;;;;;;;1739009;28;20215;-62
2023/12/24 02:14:18;;;;;;;0.00;0.00;;;;;;;;;;1739078;28;20244;-62
2023/12/24 02:15:10;;;;;;;0.00;0.00;;;;;;;;;;1739022;28;20302;-62
2023/12/24 02:16:02;;;;;;;0.00;0.00;;;;;;;;;;1737557;28;20653;-62
2023/12/24 02:16:56;;;;;;;0.00;0.00;;;;;;;;;;1739106;28;20211;-62
2023/12/24 02:17:48;;;;;;;0.00;0.00;;;;;;;;;;1738160;28;20199;-62
2023/12/24 02:18:39;;;;;;;0.10;0.10;;;;;;;;;;1739004;28;20231;-62
2023/12/24 02:19:30;;;;;;;0.00;0.00;;;;;;;;;;1738405;28;20261;-62
2023/12/24 02:20:25;;;;;;;0.10;0.10;;;;;;;;;;1738309;28;20211;-62
2023/12/24 02:21:17;;;;;;;0.00;0.00;;;;;;;;;;1737523;28;20837;-62
2023/12/24 02:22:08;;;;;;;0.00;0.00;;;;;;;;;;1739302;28;20207;-62
2023/12/24 02:23:00;;;;;;;0.00;0.00;;;;;;;;;;1738655;28;20207;-61
2023/12/24 02:23:51;;;;;;;0.00;0.00;;;;;;;;;;1739066;28;20215;-62
2023/12/24 02:24:43;;;;;;;0.00;0.00;;;;;;;;;;1738721;28;20195;-61
2023/12/24 02:25:35;;;;;;;0.00;0.00;;;;;;;;;;1737790;28;20380;-62
2023/12/24 02:26:29;;;;;;;0.00;0.00;;;;;;;;;;1738790;28;20245;-62
2023/12/24 02:27:22;;;;;;;0.00;0.00;;;;;;;;;;1738973;28;20293;-63
2023/12/24 02:28:16;;;;;;;0.00;0.00;;;;;;;;;;1738684;28;20293;-64
2023/12/24 02:29:10;;;;;;;0.00;0.00;;;;;;;;;;1738660;28;20632;-62
2023/12/24 02:30:03;;;;;;;0.00;0.00;;;;;;;;;;1738801;28;20649;-62
2023/12/24 02:30:57;;;;;;;0.00;0.00;;;;;;;;;;1736495;28;20231;-63
2023/12/24 02:31:51;;;;;;;0.00;0.00;;;;;;;;;;1736818;28;20682;-62
2023/12/24 02:32:44;;;;;;;0.00;0.00;;;;;;;;;;1738499;28;20207;-62
2023/12/24 02:33:40;;;;;;;0.00;0.00;;;;;;;;;;1739018;28;20207;-62
2023/12/24 02:34:32;;;;;;;0.10;0.10;;;;;;;;;;1738551;28;20203;-63
2023/12/24 02:35:26;;;;;;;0.00;0.00;;;;;;;;;;1738257;28;20319;-63
2023/12/24 02:36:19;;;;;;;0.00;0.00;;;;;;;;;;1737435;28;20207;-62
2023/12/24 02:37:11;;;;;;;0.00;0.00;;;;;;;;;;1739091;28;20210;-63
2023/12/24 02:38:03;;;;;;;0.00;0.00;;;;;;;;;;1738286;28;20289;-62
2023/12/24 02:38:56;;;;;;;0.00;0.00;;;;;;;;;;1738981;28;20226;-63
2023/12/24 02:39:47;;;;;;;0.00;0.00;;;;;;;;;;1738478;28;20214;-62
2023/12/24 02:40:39;;;;;;;0.00;0.00;;;;;;;;;;1736940;28;20645;-62
2023/12/24 02:41:30;;;;;;;0.00;0.00;;;;;;;;;;1737474;28;20215;-62
2023/12/24 02:42:21;;;;;;;0.00;0.00;;;;;;;;;;1738914;28;20215;-64
2023/12/24 02:43:13;;;;;;;0.00;0.00;;;;;;;;;;1738798;28;20246;-62
2023/12/24 02:44:05;;;;;;;0.00;0.00;;;;;;;;;;1738585;28;20211;-62
2023/12/24 02:44:57;;;;;;;0.00;0.00;;;;;;;;;;1738820;28;20207;-63
2023/12/24 02:45:48;;;;;;;0.00;0.00;;;;;;;;;;1737549;28;20711;-63
2023/12/24 02:46:39;;;;;;;0.00;0.00;;;;;;;;;;1738817;28;20300;-62
2023/12/24 02:47:31;;;;;;;0.00;0.00;;;;;;;;;;1738190;28;20213;-63
2023/12/24 02:48:22;;;;;;;0.00;0.00;;;;;;;;;;1739184;28;20268;-64
2023/12/24 02:49:14;;;;;;;0.00;0.00;;;;;;;;;;1738447;28;20207;-62
2023/12/24 02:50:06;;;;;;;0.00;0.00;;;;;;;;;;1737633;28;20215;-62
2023/12/24 02:50:57;;;;;;;0.00;0.00;;;;;;;;;;1737204;28;20230;-61
2023/12/24 02:51:50;;;;;;;0.00;0.00;;;;;;;;;;1739109;28;20203;-62
2023/12/24 02:52:41;;;;;;;0.00;0.00;;;;;;;;;;1738442;28;20259;-62
2023/12/24 02:53:34;;;;;;;0.00;0.00;;;;;;;;;;1739145;28;20257;-61
2023/12/24 02:54:25;;;;;;;0.00;0.00;;;;;;;;;;1738926;28;20272;-62
2023/12/24 02:55:17;;;;;;;0.00;0.00;;;;;;;;;;1737301;28;20253;-61
2023/12/24 02:56:08;;;;;;;0.00;0.00;;;;;;;;;;1731200;28;20288;-62
2023/12/24 02:56:59;;;;;;;0.00;0.00;;;;;;;;;;1731869;28;20655;-62
2023/12/24 02:57:50;;;;;;;0.00;0.00;;;;;;;;;;1731590;28;20621;-62
2023/12/24 02:58:43;;;;;;;0.00;0.00;;;;;;;;;;1731768;28;20596;-60
2023/12/24 02:59:34;;;;;;;0.00;0.00;;;;;;;;;;1731472;28;20326;-62
2023/12/24 03:00:26;;;;;;;0.00;0.00;;;;;;;;;;1732389;28;20212;-62
2023/12/24 03:01:17;;;;;;;0.00;0.00;;;;;;;;;;1728839;28;20211;-62
2023/12/24 03:02:08;;;;;;;0.00;0.00;;;;;;;;;;1738059;28;20281;-62
2023/12/24 03:03:00;;;;;;;0.00;0.00;;;;;;;;;;1737964;28;20296;-63
2023/12/24 03:03:51;;;;;;;0.00;0.00;;;;;;;;;;1739008;28;20612;-62
2023/12/24 03:04:42;;;;;;;0.00;0.00;;;;;;;;;;1738357;28;20626;-62
2023/12/24 03:05:34;;;;;;;0.00;0.00;;;;;;;;;;1737727;28;20706;-63
2023/12/24 03:06:25;;;;;;;0.00;0.00;;;;;;;;;;1738524;28;20237;-62
2023/12/24 03:07:17;;;;;;;0.00;0.00;;;;;;;;;;1739056;28;20225;-63
2023/12/24 03:08:09;;;;;;;0.00;0.00;;;;;;;;;;1738325;28;20223;-62
2023/12/24 03:09:00;;;;;;;0.00;0.00;;;;;;;;;;1738667;28;20648;-63
2023/12/24 03:09:51;;;;;;;0.00;0.00;;;;;;;;;;1738551;28;20649;-63
2023/12/24 03:10:43;;;;;;;0.00;0.00;;;;;;;;;;1737636;28;20323;-62
2023/12/24 03:11:34;;;;;;;0.00;0.00;;;;;;;;;;1738662;28;20268;-63
2023/12/24 03:12:25;;;;;;;0.00;0.00;;;;;;;;;;1738874;28;20273;-66
2023/12/24 03:13:17;;;;;;;0.00;0.00;;;;;;;;;;1738686;28;20341;-62
2023/12/24 03:14:08;;;;;;;0.00;0.00;;;;;;;;;;1738718;28;20214;-63
2023/12/24 03:15:00;;;;;;;0.00;0.00;;;;;;;;;;1738965;28;20207;-63
2023/12/24 03:15:51;;;;;;;0.00;0.00;;;;;;;;;;1737297;28;20239;-63
2023/12/24 03:16:43;;;;;;;0.00;0.00;;;;;;;;;;1739142;28;20226;-62
2023/12/24 03:17:34;;;;;;;0.00;0.00;;;;;;;;;;1738228;28;20634;-63
2023/12/24 03:18:25;;;;;;;0.00;0.00;;;;;;;;;;1737939;28;20532;-63
2023/12/24 03:19:17;;;;;;;0.00;0.00;;;;;;;;;;1738404;28;21434;-63
2023/12/24 03:20:09;;;;;;;0.05;0.05;;;;;;;;;;1738808;28;20215;-65
2023/12/24 03:21:00;;;;;;;0.00;0.00;;;;;;;;;;1737592;28;20717;-63
2023/12/24 03:21:52;;;;;;;0.00;0.00;;;;;;;;;;1738885;28;20229;-64
2023/12/24 03:22:45;;;;;;;0.00;0.00;;;;;;;;;;1738828;28;20213;-64
2023/12/24 03:23:36;;;;;;;0.00;0.00;;;;;;;;;;1739335;28;20207;-62
2023/12/24 03:24:28;;;;;;;0.00;0.00;;;;;;;;;;1739084;28;20241;-62
2023/12/24 03:25:19;;;;;;;0.00;0.00;;;;;;;;;;1737408;28;20218;-62
2023/12/24 03:26:19;;;;;;;0.00;0.00;;;;;;;;;;1738633;28;20731;-62
2023/12/24 03:27:11;;;;;;;0.00;0.00;;;;;;;;;;1738172;28;20210;-62
2023/12/24 03:28:02;;;;;;;0.00;0.00;;;;;;;;;;1738275;28;20223;-62
2023/12/24 03:28:53;;;;;;;0.00;0.00;;;;;;;;;;1739054;28;20222;-62
2023/12/24 03:29:45;;;;;;;0.00;0.00;;;;;;;;;;1738888;28;20744;-62
2023/12/24 03:30:36;;;;;;;0.00;0.00;;;;;;;;;;1732026;28;20260;-64
2023/12/24 03:31:28;;;;;;;0.00;0.00;;;;;;;;;;1739092;28;20206;-63
2023/12/24 03:32:19;;;;;;;0.00;0.00;;;;;;;;;;1736883;28;20268;-65
2023/12/24 03:33:10;;;;;;;0.00;0.00;;;;;;;;;;1738513;28;20261;-63
2023/12/24 03:34:02;;;;;;;0.00;0.00;;;;;;;;;;1738889;28;20206;-62
2023/12/24 03:34:53;;;;;;;0.00;0.00;;;;;;;;;;1738370;28;20210;-62
2023/12/24 03:35:44;;;;;;;0.00;0.00;;;;;;;;;;1736556;28;20223;-63
2023/12/24 03:36:36;;;;;;;0.00;0.00;;;;;;;;;;1740800;28;20198;-62
2023/12/24 03:37:27;;;;;;;0.00;0.00;;;;;;;;;;1739051;28;20635;-62
2023/12/24 03:38:20;;;;;;;0.00;0.00;;;;;;;;;;1738889;28;20217;-63
2023/12/24 03:39:12;;;;;;;0.00;0.00;;;;;;;;;;1738353;28;20207;-62
2023/12/24 03:40:04;;;;;;;0.00;0.00;;;;;;;;;;1739067;28;20512;-62
2023/12/24 03:40:56;;;;;;;0.00;0.00;;;;;;;;;;1735569;28;20705;-61
2023/12/24 03:41:47;;;;;;;0.00;0.00;;;;;;;;;;1737523;28;20293;-62
2023/12/24 03:42:38;;;;;;;0.00;0.00;;;;;;;;;;1738073;28;20206;-63
2023/12/24 03:43:30;;;;;;;0.00;0.00;;;;;;;;;;1739148;28;20242;-62
2023/12/24 03:44:21;;;;;;;0.00;0.00;;;;;;;;;;1736670;28;20672;-62
2023/12/24 03:45:12;;;;;;;0.00;0.00;;;;;;;;;;1738413;28;20618;-62
2023/12/24 03:46:04;;;;;;;0.10;0.10;;;;;;;;;;1737086;28;20525;-61
2023/12/24 03:46:55;;;;;;;0.00;0.00;;;;;;;;;;1738612;28;20802;-62
2023/12/24 03:47:46;;;;;;;0.00;0.00;;;;;;;;;;1737897;28;20692;-63
2023/12/24 03:48:39;;;;;;;0.00;0.00;;;;;;;;;;1738579;28;20805;-62
2023/12/24 03:49:30;;;;;;;0.00;0.00;;;;;;;;;;1738149;28;20214;-61
2023/12/24 03:50:21;;;;;;;0.00;0.00;;;;;;;;;;1738982;28;20213;-62
2023/12/24 03:51:14;;;;;;;0.00;0.00;;;;;;;;;;1736754;28;20234;-62
2023/12/24 03:52:06;;;;;;;0.00;0.00;;;;;;;;;;1736717;28;20747;-63
2023/12/24 03:52:57;;;;;;;0.00;0.00;;;;;;;;;;1737849;28;20199;-61
2023/12/24 03:53:50;;;;;;;0.00;0.00;;;;;;;;;;1738733;28;20202;-62
2023/12/24 03:54:41;;;;;;;0.00;0.00;;;;;;;;;;1738182;28;20647;-63
2023/12/24 03:55:32;;;;;;;0.00;0.00;;;;;;;;;;1737344;28;20597;-62
2023/12/24 03:56:24;;;;;;;0.00;0.00;;;;;;;;;;1738432;28;20213;-62
2023/12/24 03:57:15;;;;;;;0.00;0.00;;;;;;;;;;1738398;28;20586;-63
2023/12/24 03:58:06;;;;;;;0.00;0.00;;;;;;;;;;1738306;28;20692;-62
2023/12/24 03:58:58;;;;;;;0.10;0.10;;;;;;;;;;1738539;28;20733;-63
2023/12/24 03:59:49;;;;;;;0.00;0.00;;;;;;;;;;1738068;28;20210;-63
2023/12/24 04:00:41;;;;;;;0.00;0.00;;;;;;;;;;1737388;28;20338;-62
2023/12/24 04:01:32;;;;;;;0.00;0.00;;;;;;;;;;1736139;28;20208;-62
2023/12/24 04:02:24;;;;;;;0.00;0.00;;;;;;;;;;1738645;28;20206;-63
2023/12/24 04:03:15;;;;;;;0.00;0.00;;;;;;;;;;1738104;28;20256;-63
2023/12/24 04:04:06;;;;;;;0.00;0.00;;;;;;;;;;1738451;28;20253;-61
2023/12/24 04:04:58;;;;;;;0.00;0.00;;;;;;;;;;1738326;28;20377;-63
2023/12/24 04:05:50;;;;;;;0.00;0.00;;;;;;;;;;1736554;28;20246;-62
2023/12/24 04:06:41;;;;;;;0.00;0.00;;;;;;;;;;1738586;28;20199;-61
2023/12/24 04:07:33;;;;;;;0.00;0.00;;;;;;;;;;1737778;28;20210;-62
2023/12/24 04:08:24;;;;;;;0.00;0.00;;;;;;;;;;1738711;28;20755;-62
2023/12/24 04:09:16;;;;;;;0.00;0.00;;;;;;;;;;1737980;28;20318;-62
2023/12/24 04:10:08;;;;;;;0.00;0.00;;;;;;;;;;1736277;28;20662;-61
2023/12/24 04:10:59;;;;;;;0.00;0.00;;;;;;;;;;1736935;28;20291;-61
2023/12/24 04:11:50;;;;;;;0.00;0.00;;;;;;;;;;1738367;28;20252;-62
2023/12/24 04:12:42;;;;;;;0.00;0.00;;;;;;;;;;1738056;28;20494;-61
2023/12/24 04:13:33;;;;;;;0.00;0.00;;;;;;;;;;1738489;28;20214;-61
2023/12/24 04:14:24;;;;;;;0.00;0.00;;;;;;;;;;1738225;28;20211;-62
2023/12/24 04:15:16;;;;;;;0.00;0.00;;;;;;;;;;1737917;28;20289;-62
2023/12/24 04:16:08;;;;;;;0.00;0.00;;;;;;;;;;1737422;28;20234;-62
2023/12/24 04:17:02;;;;;;;0.00;0.00;;;;;;;;;;1738511;28;20203;-63
2023/12/24 04:17:53;;;;;;;0.00;0.00;;;;;;;;;;1737662;28;20991;-62
2023/12/24 04:18:45;;;;;;;0.00;0.00;;;;;;;;;;1738240;28;20215;-62
2023/12/24 04:19:36;;;;;;;0.00;0.00;;;;;;;;;;1738068;28;20210;-62
2023/12/24 04:20:27;;;;;;;0.00;0.00;;;;;;;;;;1738104;28;20248;-63
2023/12/24 04:21:19;;;;;;;0.00;0.00;;;;;;;;;;1737572;28;20218;-62
2023/12/24 04:22:10;;;;;;;0.00;0.00;;;;;;;;;;1738381;28;20215;-62
2023/12/24 04:23:01;;;;;;;0.00;0.00;;;;;;;;;;1737934;28;20234;-62
2023/12/24 04:23:53;;;;;;;0.00;0.00;;;;;;;;;;1738439;28;20194;-62
2023/12/24 04:24:45;;;;;;;0.00;0.00;;;;;;;;;;1737672;28;20268;-62
2023/12/24 04:25:36;;;;;;;0.00;0.00;;;;;;;;;;1730939;28;20334;-62
2023/12/24 04:26:28;;;;;;;0.00;0.00;;;;;;;;;;1738201;28;20313;-63
2023/12/24 04:27:19;;;;;;;0.00;0.00;;;;;;;;;;1738309;28;20297;-62
2023/12/24 04:28:11;;;;;;;0.00;0.00;;;;;;;;;;1737830;28;20211;-61
2023/12/24 04:29:03;;;;;;;0.00;0.00;;;;;;;;;;1737956;28;20202;-62
2023/12/24 04:29:54;;;;;;;0.00;0.00;;;;;;;;;;1737972;28;20259;-62
2023/12/24 04:30:45;;;;;;;0.00;0.00;;;;;;;;;;1736946;28;20761;-62
2023/12/24 04:31:39;;;;;;;0.00;0.00;;;;;;;;;;1738511;28;20203;-62
2023/12/24 04:32:30;;;;;;;0.00;0.00;;;;;;;;;;1738033;28;20352;-62
2023/12/24 04:33:21;;;;;;;0.10;0.10;;;;;;;;;;1738379;28;20211;-62
2023/12/24 04:34:13;;;;;;;0.00;0.00;;;;;;;;;;1738013;28;20291;-62
2023/12/24 04:35:04;;;;;;;0.00;0.00;;;;;;;;;;1737982;28;20263;-61
2023/12/24 04:35:55;;;;;;;0.00;0.00;;;;;;;;;;1736587;28;20237;-61
2023/12/24 04:36:47;;;;;;;0.00;0.00;;;;;;;;;;1738200;28;20206;-62
2023/12/24 04:37:38;;;;;;;0.00;0.00;;;;;;;;;;1737920;28;20210;-62
2023/12/24 04:38:29;;;;;;;0.00;0.00;;;;;;;;;;1738786;28;20663;-63
2023/12/24 04:39:21;;;;;;;0.00;0.00;;;;;;;;;;1737474;28;20693;-62
2023/12/24 04:40:14;;;;;;;0.00;0.00;;;;;;;;;;1738401;28;20276;-62
2023/12/24 04:41:05;;;;;;;0.00;0.00;;;;;;;;;;1727213;28;20762;-61
2023/12/24 04:41:56;;;;;;;0.00;0.00;;;;;;;;;;1726695;28;20683;-62
2023/12/24 04:42:47;;;;;;;0.00;0.00;;;;;;;;;;1730619;28;20295;-63
2023/12/24 04:43:38;;;;;;;0.00;0.00;;;;;;;;;;1730949;28;20207;-62
2023/12/24 04:44:30;;;;;;;0.00;0.00;;;;;;;;;;1730610;28;20203;-63
2023/12/24 04:45:22;;;;;;;0.00;0.00;;;;;;;;;;1729366;28;20215;-63
2023/12/24 04:46:13;;;;;;;0.10;0.10;;;;;;;;;;1732498;28;20698;-62
2023/12/24 04:47:05;;;;;;;0.00;0.00;;;;;;;;;;1728936;28;20203;-64
2023/12/24 04:47:58;;;;;;;0.00;0.00;;;;;;;;;;1730481;28;20208;-63
2023/12/24 04:48:49;;;;;;;0.00;0.00;;;;;;;;;;1729890;28;20223;-61
2023/12/24 04:49:41;;;;;;;0.00;0.00;;;;;;;;;;1730000;28;20226;-62
2023/12/24 04:50:32;;;;;;;0.00;0.00;;;;;;;;;;1730159;28;20280;-62
2023/12/24 04:51:23;;;;;;;0.00;0.00;;;;;;;;;;1730800;28;20239;-62
2023/12/24 04:52:15;;;;;;;0.00;0.00;;;;;;;;;;1731639;28;20293;-62
2023/12/24 04:53:06;;;;;;;0.00;0.00;;;;;;;;;;1731148;28;20219;-62
2023/12/24 04:53:57;;;;;;;0.00;0.00;;;;;;;;;;1731567;28;20740;-64
2023/12/24 04:54:49;;;;;;;0.00;0.00;;;;;;;;;;1732562;28;20681;-62
2023/12/24 04:55:42;;;;;;;0.00;0.00;;;;;;;;;;1731645;28;20239;-61
2023/12/24 04:56:34;;;;;;;0.00;0.00;;;;;;;;;;1733064;28;20226;-61
2023/12/24 04:57:25;;;;;;;0.00;0.00;;;;;;;;;;1732461;28;20253;-61
2023/12/24 04:58:17;;;;;;;0.00;0.00;;;;;;;;;;1732756;28;20686;-62
2023/12/24 04:59:08;;;;;;;0.00;0.00;;;;;;;;;;1732376;28;20238;-63
2023/12/24 04:59:59;;;;;;;0.00;0.00;;;;;;;;;;1732543;28;20266;-62
2023/12/24 05:00:51;;;;;;;0.00;0.00;;;;;;;;;;1731538;28;20313;-63
2023/12/24 05:01:42;;;;;;;0.00;0.00;;;;;;;;;;1730511;28;20203;-61
2023/12/24 05:02:34;;;;;;;0.00;0.00;;;;;;;;;;1728351;28;20208;-62
2023/12/24 05:03:25;;;;;;;0.00;0.00;;;;;;;;;;1731354;28;20207;-62
2023/12/24 05:04:17;;;;;;;0.00;0.00;;;;;;;;;;1730840;28;20285;-62
2023/12/24 05:05:08;;;;;;;0.00;0.00;;;;;;;;;;1727528;28;20208;-62
2023/12/24 05:06:00;;;;;;;0.00;0.00;;;;;;;;;;1727392;28;20302;-61
2023/12/24 05:06:51;;;;;;;0.00;0.00;;;;;;;;;;1732976;28;20203;-61
2023/12/24 05:07:42;;;;;;;0.00;0.00;;;;;;;;;;1732230;28;20199;-62
2023/12/24 05:08:34;;;;;;;0.00;0.00;;;;;;;;;;1732945;28;20322;-61
2023/12/24 05:09:26;;;;;;;0.00;0.00;;;;;;;;;;1732001;28;20273;-62
2023/12/24 05:10:18;;;;;;;0.00;0.00;;;;;;;;;;1731605;28;20211;-63